Stehekin, WA

10:59 AM PDT on August 22, 2014 (GMT -0700)
Peasant Pharms | Change Station
CLOSE
Current Station
Personal Weather Station
Location: Winthrop, WA
Elevation: 1850 ft
Nearby Weather Stations
Active Advisory: Flash Flood Watch

Elev 1850 ft 48.50 °N, 120.26 °W | Updated 60 seconds ago

Overcast
Overcast
71.1 °F
Feels Like 77 °F
N
5.4
Wind Variable Wind from NNE
Gusts 8.3 mph

Today
High -- | Low -- °F
--% Chance of Precip.
Yesterday
High -- | Low -- °F
Precip. -- in
6:06 AM 8:03 PM
Waning Crescent, 7% visible
Pressure 30.03 in
Visibility 10.0 miles
Clouds Scattered Clouds 8000 ft
Overcast 9500 ft
Heat Index 77 °F
Dew Point 49 °F
Humidity 46%
Rainfall 0.00 in
Snow Depth 1 in , 0 in
UV 2 out of 12
Pollen 2.80 out of 12
Air Quality Not available.
Flu Activity Not available.
METAR KOMK 221753Z AUTO 01015G18KT 10SM SCT080 OVC095 20/12 A3004 RMK AO2 SLP168 T02000117 10200 20133 53007

More Conditions Fewer Conditions

Pressure 30.03 in
Visibility 10.0 miles
Clouds Scattered Clouds 8000 ft
Overcast 9500 ft
Heat Index 77 °F
Dew Point 49 °F
Humidity 46%
Rainfall 0.00 in
Snow Depth 1 in , 0 in
UV 2 out of 12
Pollen 2.80 out of 12
Air Quality Not available.
Flu Activity Not available.
METAR KOMK 221753Z AUTO 01015G18KT 10SM SCT080 OVC095 20/12 A3004 RMK AO2 SLP168 T02000117 10200 20133 53007

More Conditions Fewer Conditions

10-Day Weather Forecast

Almanac

Astronomy

Aug. 22, 2014 Rise Set
Actual Time 6:06 AM PDT 8:03 PM PDT
Civil Twilight 5:32 AM PDT 8:36 PM PDT
Nautical Twilight 4:51 AM PDT 9:18 PM PDT
Astronomical Twilight 4:05 AM PDT 10:03 PM PDT
Moon 3:27 AM PDT 6:18 PM PDT
Length of Visible Light 15h 03m
Length of Day
13h 56m
Tomorrow will be 3m 17s shorter.
Waning Crescent, 7% of the Moon is Illuminated
Today
Waning Crescent
Aug 25
New
Sep 2
First Quarter
Sep 8
Full
Sep 15
Last Quarter

Today's Extremes

State Highs State Lows

Community

WunderPhotos

Upload Photos

1,746,206 photos uploaded!

WunderBlogs® & News

Nearby

Snow Depth

Station Depth Elevation
Lyman Lake 1 in 5900 ft
Rainy Pass 0 in 4780 ft
Swamp Creek 0 in 4000 ft
Harts Pass 0 in 6500 ft
Stevens Pass 0 in 4070 ft

Earthquake Activity

City Distance Mag. Time & Date
No recent earthquake activity has been reported nearby.
Minimum magnitude displayed is 2.5.

Coastal Water Temperatures

Place Temperature
No Stations Reporting

Nearby Weather Stations